Time;durP1;ratioP1;P1;durP2;ratioP2;P2;SDS_P1;SDS_P2;PMS_P1;PMS_P2;Temp;Humidity;BMP_temperature;BMP_pressure;BME280_temperature;BME280_humidity;BME280_pressure;Samples;Min_cycle;Max_cycle;Signal;HPM_P1;HPM_P2
2021/12/28 00:00:06;;;;;;;5.78;3.38;;;2.60;99.90;;;;;;5020227;28;20507;-83
2021/12/28 00:02:32;;;;;;;5.10;3.20;;;2.60;99.90;;;;;;5024069;28;20049;-82
2021/12/28 00:04:58;;;;;;;7.97;3.72;;;3.00;99.90;;;;;;5025168;28;20084;-83
2021/12/28 00:07:23;;;;;;;6.22;3.45;;;3.10;99.90;;;;;;5042383;28;20539;-82
2021/12/28 00:09:49;;;;;;;7.82;3.65;;;2.90;99.90;;;;;;5044326;28;20048;-83
2021/12/28 00:12:15;;;;;;;5.85;3.00;;;3.30;99.90;;;;;;5032068;28;20068;-82
2021/12/28 00:14:49;;;;;;;4.72;2.85;;;1.90;99.90;;;;;;5040996;28;20132;-82
2021/12/28 00:20:00;;;;;;;7.00;3.67;;;3.30;99.90;;;;;;5039817;28;20052;-82
2021/12/28 00:22:25;;;;;;;4.95;2.95;;;3.00;99.90;;;;;;5045863;28;20391;-82
2021/12/28 00:24:51;;;;;;;4.60;2.95;;;2.90;99.90;;;;;;5053310;28;20175;-82
2021/12/28 00:27:18;;;;;;;5.13;3.00;;;3.10;99.90;;;;;;5043957;28;20410;-82
2021/12/28 00:29:43;;;;;;;4.53;2.72;;;3.60;99.90;;;;;;5026564;28;20426;-82
2021/12/28 00:32:09;;;;;;;6.20;3.25;;;3.10;99.90;;;;;;5055473;28;20123;-82
2021/12/28 00:34:35;;;;;;;5.47;2.75;;;2.90;99.90;;;;;;5060695;28;20041;-82
2021/12/28 00:37:01;;;;;;;6.90;3.55;;;2.90;99.90;;;;;;5048746;28;20112;-82
2021/12/28 00:39:27;;;;;;;3.60;2.35;;;3.00;99.90;;;;;;5051754;28;20049;-82
2021/12/28 00:41:53;;;;;;;4.57;2.60;;;3.40;99.90;;;;;;5059719;28;20433;-82
2021/12/28 00:44:18;;;;;;;6.03;2.95;;;3.10;99.90;;;;;;5051817;28;20033;-82
2021/12/28 00:46:45;;;;;;;4.07;2.17;;;2.30;99.90;;;;;;5031133;28;20101;-82
2021/12/28 00:49:11;;;;;;;3.72;2.28;;;3.10;99.90;;;;;;5060758;28;20052;-82
2021/12/28 00:51:37;;;;;;;4.95;2.47;;;3.10;99.90;;;;;;5028104;28;20045;-82
2021/12/28 00:54:03;;;;;;;5.57;2.72;;;4.00;99.90;;;;;;5025775;28;20635;-81
2021/12/28 00:56:29;;;;;;;6.95;3.17;;;3.10;99.90;;;;;;5021385;28;20044;-82
2021/12/28 00:58:55;;;;;;;5.70;3.08;;;3.10;99.90;;;;;;5027384;28;20056;-82
2021/12/28 01:01:21;;;;;;;6.38;2.78;;;3.20;99.90;;;;;;5028874;28;20051;-82
2021/12/28 01:03:46;;;;;;;5.78;3.35;;;3.20;99.90;;;;;;5017131;28;20045;-81
2021/12/28 01:06:12;;;;;;;8.48;3.63;;;3.20;99.90;;;;;;5043283;28;20068;-82
2021/12/28 01:08:38;;;;;;;5.85;2.70;;;3.70;99.90;;;;;;5026421;28;20457;-82
2021/12/28 01:11:05;;;;;;;5.15;3.00;;;3.20;99.90;;;;;;5045027;28;20052;-82
2021/12/28 01:13:31;;;;;;;5.30;3.47;;;4.60;99.90;;;;;;5027163;28;20037;-81
2021/12/28 01:15:57;;;;;;;4.70;2.78;;;2.50;99.90;;;;;;5045029;28;20048;-82
2021/12/28 01:18:24;;;;;;;4.82;2.22;;;3.20;99.90;;;;;;5043526;28;20512;-82
2021/12/28 01:20:51;;;;;;;3.97;2.60;;;3.50;99.90;;;;;;5024035;28;20087;-82
2021/12/28 01:23:18;;;;;;;8.18;3.70;;;3.20;99.90;;;;;;5041868;28;20044;-82
2021/12/28 01:25:44;;;;;;;8.27;3.42;;;3.90;99.90;;;;;;5044724;28;20083;-81
2021/12/28 01:28:10;;;;;;;6.38;3.17;;;3.90;99.90;;;;;;5044579;28;20442;-81
2021/12/28 01:30:39;;;;;;;5.90;3.15;;;3.30;99.90;;;;;;5025838;28;20094;-81
2021/12/28 01:33:05;;;;;;;5.20;2.67;;;3.80;99.90;;;;;;5038899;28;20041;-82
2021/12/28 01:35:32;;;;;;;5.40;3.10;;;3.90;99.90;;;;;;5044530;28;20041;-82
2021/12/28 01:37:58;;;;;;;5.88;3.00;;;3.30;99.90;;;;;;5036808;28;20051;-82
2021/12/28 01:40:29;;;;;;;6.20;3.08;;;4.30;99.90;;;;;;5044623;28;20420;-82
2021/12/28 01:43:02;;;;;;;4.53;2.85;;;3.30;99.90;;;;;;5023987;28;20057;-83
2021/12/28 01:45:45;;;;;;;6.18;3.65;;;3.40;99.90;;;;;;5044679;28;20128;-83
2021/12/28 01:48:14;;;;;;;7.30;3.50;;;3.40;99.90;;;;;;5037071;28;20561;-82
2021/12/28 01:50:40;;;;;;;7.43;3.63;;;4.00;99.90;;;;;;5043900;28;20557;-83
2021/12/28 01:53:07;;;;;;;5.47;3.45;;;4.30;99.90;;;;;;5018069;28;20124;-83
2021/12/28 01:55:35;;;;;;;6.15;3.58;;;3.00;99.90;;;;;;5047557;28;20047;-83
2021/12/28 01:58:02;;;;;;;6.80;3.33;;;3.50;99.90;;;;;;5044376;28;20045;-83
2021/12/28 02:00:28;;;;;;;5.78;3.58;;;3.50;99.90;;;;;;5026501;28;20041;-83
2021/12/28 02:02:54;;;;;;;6.68;3.40;;;3.50;99.90;;;;;;5044333;28;20487;-83
2021/12/28 02:05:20;;;;;;;6.82;3.22;;;3.50;99.90;;;;;;5039012;28;20086;-83
2021/12/28 02:07:46;;;;;;;8.60;4.90;;;3.60;99.90;;;;;;5040767;28;20057;-83
2021/12/28 02:10:12;;;;;;;7.38;4.28;;;4.00;99.90;;;;;;5042372;28;20060;-83
2021/12/28 02:12:38;;;;;;;7.15;4.43;;;3.60;99.90;;;;;;5030866;28;20040;-83
2021/12/28 02:15:08;;;;;;;6.10;3.45;;;4.10;99.90;;;;;;5034910;28;20406;-83
2021/12/28 02:17:34;;;;;;;8.02;4.72;;;3.70;99.90;;;;;;5041086;28;20037;-83
2021/12/28 02:20:12;;;;;;;8.10;4.95;;;2.90;99.90;;;;;;5030585;28;20536;-83
2021/12/28 02:22:40;;;;;;;9.10;5.30;;;3.70;99.90;;;;;;5030401;28;20063;-83
2021/12/28 02:25:07;;;;;;;9.25;5.50;;;4.60;99.90;;;;;;5054294;28;20033;-83
2021/12/28 02:27:34;;;;;;;8.02;4.72;;;3.70;99.90;;;;;;5032332;28;20483;-83
2021/12/28 02:30:01;;;;;;;9.32;4.82;;;3.80;99.90;;;;;;5048182;28;20037;-83
2021/12/28 02:32:28;;;;;;;6.95;4.05;;;3.70;99.90;;;;;;5047855;28;20395;-83
2021/12/28 02:34:55;;;;;;;9.73;5.07;;;3.90;99.90;;;;;;5037944;28;20029;-82
2021/12/28 02:37:21;;;;;;;9.30;5.22;;;3.70;99.90;;;;;;5043233;28;20063;-82
2021/12/28 02:39:46;;;;;;;6.95;4.03;;;3.70;99.90;;;;;;5029479;28;20045;-82
2021/12/28 02:42:16;;;;;;;8.13;4.32;;;3.90;99.90;;;;;;5022333;28;20388;-82
2021/12/28 02:44:41;;;;;;;7.05;3.85;;;3.50;99.90;;;;;;5041529;28;20403;-81
2021/12/28 02:47:07;;;;;;;7.35;4.15;;;3.80;99.90;;;;;;5047698;28;20037;-82
2021/12/28 02:49:36;;;;;;;6.00;3.67;;;4.60;99.90;;;;;;5030011;28;20048;-83
2021/12/28 02:52:02;;;;;;;8.23;4.72;;;4.00;99.90;;;;;;5033794;28;20053;-84
2021/12/28 02:54:28;;;;;;;7.53;4.40;;;3.80;99.90;;;;;;5026794;28;20102;-83
2021/12/28 02:56:54;;;;;;;9.45;4.07;;;3.70;99.90;;;;;;5044548;28;20487;-83
2021/12/28 02:59:19;;;;;;;6.93;3.47;;;3.70;99.90;;;;;;5044190;28;20129;-83
2021/12/28 03:01:45;;;;;;;6.60;3.63;;;4.60;99.90;;;;;;5026466;28;20041;-83
2021/12/28 03:04:11;;;;;;;6.50;3.60;;;4.10;99.90;;;;;;5044020;28;20096;-83
2021/12/28 03:06:36;;;;;;;6.00;3.38;;;2.70;99.90;;;;;;5062415;28;20411;-83
2021/12/28 03:09:06;;;;;;;9.10;4.78;;;4.20;99.90;;;;;;5047463;28;20084;-83
2021/12/28 03:11:32;;;;;;;8.25;3.85;;;3.90;99.90;;;;;;5047171;28;20048;-83
2021/12/28 03:14:02;;;;;;;9.20;4.18;;;3.90;99.90;;;;;;5043826;28;20049;-82
2021/12/28 03:16:31;;;;;;;5.10;2.95;;;3.90;99.90;;;;;;5027891;28;20439;-83
2021/12/28 03:18:57;;;;;;;7.20;3.80;;;3.90;99.90;;;;;;5007980;28;20045;-83
2021/12/28 03:21:24;;;;;;;7.07;4.10;;;3.90;99.90;;;;;;5027852;28;20131;-83
2021/12/28 03:23:51;;;;;;;6.38;3.70;;;4.70;99.90;;;;;;5028553;28;20045;-84
2021/12/28 03:26:17;;;;;;;7.40;3.88;;;3.80;99.90;;;;;;5046968;28;20120;-82
2021/12/28 03:28:45;;;;;;;6.47;4.00;;;4.50;99.90;;;;;;5044869;28;20117;-83
2021/12/28 03:31:17;;;;;;;7.90;4.68;;;4.40;99.90;;;;;;5043805;28;20072;-83
2021/12/28 03:33:47;;;;;;;7.03;4.32;;;3.90;99.90;;;;;;5046231;28;20049;-83
2021/12/28 03:36:14;;;;;;;8.40;4.03;;;4.30;99.90;;;;;;5045641;28;20052;-82
2021/12/28 03:38:41;;;;;;;8.05;4.07;;;4.80;99.90;;;;;;5055741;28;20055;-82
2021/12/28 03:41:09;;;;;;;6.53;3.60;;;4.30;99.90;;;;;;5048053;28;20377;-83
2021/12/28 03:43:41;;;;;;;7.78;3.80;;;4.40;99.90;;;;;;5019358;28;20045;-81
2021/12/28 03:46:07;;;;;;;7.75;4.00;;;4.70;99.90;;;;;;5042423;28;20037;-82
2021/12/28 03:48:34;;;;;;;7.63;4.00;;;5.00;99.90;;;;;;5025258;28;20049;-82
2021/12/28 03:51:00;;;;;;;6.90;3.78;;;4.10;99.90;;;;;;5039963;28;20406;-83
2021/12/28 03:53:26;;;;;;;8.00;3.97;;;3.20;99.90;;;;;;5028841;28;20128;-82
2021/12/28 03:55:52;;;;;;;8.02;4.13;;;4.40;99.90;;;;;;5027984;28;20040;-81
2021/12/28 03:58:17;;;;;;;7.43;4.07;;;4.00;99.90;;;;;;5021672;28;20094;-83
2021/12/28 04:00:45;;;;;;;6.70;3.95;;;4.30;99.90;;;;;;5040594;28;20041;-83
2021/12/28 04:03:12;;;;;;;8.73;4.28;;;4.00;99.90;;;;;;5043298;28;20495;-82
2021/12/28 04:05:38;;;;;;;9.13;4.22;;;4.00;99.90;;;;;;5025258;28;20049;-81
2021/12/28 04:08:05;;;;;;;7.32;4.22;;;4.40;99.90;;;;;;5008564;28;20061;-83
2021/12/28 04:10:38;;;;;;;8.52;4.35;;;4.00;99.90;;;;;;5061675;28;20091;-83
2021/12/28 04:13:04;;;;;;;10.30;4.65;;;4.90;99.90;;;;;;5046179;28;20080;-82
2021/12/28 04:15:30;;;;;;;8.38;5.03;;;4.70;99.90;;;;;;5025157;28;20057;-83
2021/12/28 04:17:56;;;;;;;7.95;4.15;;;5.70;99.90;;;;;;5020489;28;20053;-82
2021/12/28 04:20:22;;;;;;;10.27;5.13;;;4.00;99.90;;;;;;5044173;28;20087;-84
2021/12/28 04:22:49;;;;;;;8.30;4.60;;;4.30;99.90;;;;;;5022239;28;20448;-82
2021/12/28 04:25:17;;;;;;;9.65;4.68;;;4.40;99.90;;;;;;5037972;28;20365;-82
2021/12/28 04:27:43;;;;;;;7.70;4.00;;;4.90;99.90;;;;;;5041114;28;20503;-83
2021/12/28 04:30:11;;;;;;;7.40;3.95;;;4.90;99.90;;;;;;5036335;28;20048;-83
2021/12/28 04:32:37;;;;;;;7.13;3.70;;;4.10;99.90;;;;;;5025009;28;20044;-84
2021/12/28 04:35:04;;;;;;;8.75;4.05;;;4.70;99.90;;;;;;5021360;28;20053;-83
2021/12/28 04:37:29;;;;;;;8.57;4.57;;;4.10;99.90;;;;;;5045185;28;20094;-83
2021/12/28 04:39:55;;;;;;;8.82;3.85;;;4.10;99.90;;;;;;5039730;28;20159;-83
2021/12/28 04:42:21;;;;;;;7.05;3.78;;;4.10;99.90;;;;;;5022998;28;20040;-83
2021/12/28 04:44:49;;;;;;;8.00;3.97;;;4.10;99.90;;;;;;5043910;28;20083;-82
2021/12/28 04:47:16;;;;;;;7.93;4.20;;;3.70;99.90;;;;;;5024469;28;20499;-82
2021/12/28 04:49:43;;;;;;;8.60;4.70;;;5.40;99.90;;;;;;5043638;28;20380;-81
2021/12/28 04:52:09;;;;;;;10.00;5.22;;;4.20;99.90;;;;;;5038320;28;20372;-82
2021/12/28 04:54:36;;;;;;;7.75;4.22;;;5.70;99.90;;;;;;5045433;28;20045;-83
2021/12/28 04:57:03;;;;;;;8.93;5.22;;;4.80;99.90;;;;;;5043107;28;20036;-83
2021/12/28 04:59:29;;;;;;;9.68;4.93;;;4.30;99.90;;;;;;5038529;28;20072;-82
2021/12/28 05:01:54;;;;;;;9.05;4.82;;;4.70;99.90;;;;;;5020500;28;20084;-82
2021/12/28 05:04:20;;;;;;;10.52;5.60;;;4.30;99.90;;;;;;5027295;28;20045;-83
2021/12/28 05:06:46;;;;;;;10.90;5.93;;;4.90;99.90;;;;;;5044234;28;20495;-82
2021/12/28 05:09:15;;;;;;;9.95;5.30;;;5.10;99.90;;;;;;5042387;28;20099;-82
2021/12/28 05:11:42;;;;;;;9.07;4.80;;;4.40;99.90;;;;;;5023656;28;20121;-83
2021/12/28 05:14:09;;;;;;;9.27;4.22;;;4.90;99.90;;;;;;5043323;28;20072;-83
2021/12/28 05:16:35;;;;;;;10.93;5.93;;;4.80;99.90;;;;;;5038183;28;20049;-83
2021/12/28 05:19:03;;;;;;;13.15;6.85;;;4.50;99.90;;;;;;5027108;28;20053;-82
2021/12/28 05:21:30;;;;;;;13.95;5.90;;;4.50;99.90;;;;;;5019437;28;20124;-83
2021/12/28 05:23:56;;;;;;;10.68;6.05;;;4.60;99.90;;;;;;5040592;28;20049;-83
2021/12/28 05:26:22;;;;;;;14.50;6.93;;;4.60;99.90;;;;;;5036616;28;20280;-83
2021/12/28 05:28:49;;;;;;;12.77;6.80;;;4.50;99.90;;;;;;5044854;28;20110;-84
2021/12/28 05:31:14;;;;;;;17.23;8.13;;;5.50;99.90;;;;;;5019742;28;20048;-84
2021/12/28 05:33:41;;;;;;;11.63;6.90;;;6.10;99.90;;;;;;5043743;28;20041;-83
2021/12/28 05:36:07;;;;;;;13.20;6.28;;;4.70;99.90;;;;;;5026919;28;20490;-81
2021/12/28 05:38:34;;;;;;;11.98;6.60;;;4.80;99.90;;;;;;5041983;28;20052;-83
2021/12/28 05:41:00;;;;;;;11.82;6.28;;;4.90;99.90;;;;;;5025182;28;20034;-82
2021/12/28 05:43:25;;;;;;;13.88;6.93;;;4.80;99.90;;;;;;5035885;28;20034;-84
2021/12/28 05:45:51;;;;;;;11.18;6.63;;;5.20;99.90;;;;;;5020416;28;20072;-83
2021/12/28 05:48:17;;;;;;;13.60;7.80;;;5.60;99.90;;;;;;5025710;28;20040;-82
2021/12/28 05:50:43;;;;;;;15.77;8.15;;;3.70;99.90;;;;;;5042791;28;20036;-80
2021/12/28 05:53:09;;;;;;;14.20;6.97;;;5.90;99.90;;;;;;5021358;28;20075;-83
2021/12/28 05:55:35;;;;;;;11.77;6.45;;;5.00;99.90;;;;;;5042596;28;20052;-82
2021/12/28 05:58:01;;;;;;;12.50;5.70;;;4.10;99.90;;;;;;5023413;28;20052;-81
2021/12/28 06:00:28;;;;;;;10.30;5.15;;;4.70;99.90;;;;;;5012859;28;20083;-82
2021/12/28 06:02:55;;;;;;;9.15;5.20;;;4.80;99.90;;;;;;5043391;28;20124;-83
2021/12/28 06:05:22;;;;;;;11.10;5.95;;;4.70;99.90;;;;;;5043373;28;20091;-83
2021/12/28 06:07:47;;;;;;;10.30;4.80;;;4.80;99.90;;;;;;5044048;28;20465;-82
2021/12/28 06:10:14;;;;;;;9.18;4.97;;;4.70;99.90;;;;;;5021599;28;20045;-83
2021/12/28 06:12:40;;;;;;;10.75;6.03;;;5.00;99.90;;;;;;5018637;28;20045;-83
2021/12/28 06:15:07;;;;;;;14.07;6.25;;;5.00;99.90;;;;;;5027135;28;20077;-83
2021/12/28 06:17:32;;;;;;;10.57;6.05;;;4.70;99.90;;;;;;5025423;28;20125;-82
2021/12/28 06:19:58;;;;;;;11.60;5.65;;;3.70;99.90;;;;;;5023109;28;20464;-83
2021/12/28 06:22:24;;;;;;;10.80;5.35;;;5.20;99.90;;;;;;5016758;28;20042;-83
2021/12/28 06:24:50;;;;;;;10.85;5.68;;;5.20;99.90;;;;;;5042721;28;20111;-83
2021/12/28 06:27:16;;;;;;;10.40;5.20;;;5.00;99.90;;;;;;5042091;28;20429;-83
2021/12/28 06:29:42;;;;;;;10.27;4.90;;;5.20;99.90;;;;;;5026040;28;20080;-84
2021/12/28 06:32:08;;;;;;;11.15;5.57;;;4.00;99.90;;;;;;5034430;28;20489;-83
2021/12/28 06:34:34;;;;;;;11.48;5.90;;;4.60;99.90;;;;;;5016389;28;20045;-84
2021/12/28 06:37:00;;;;;;;14.00;6.43;;;4.60;99.90;;;;;;5024679;28;20507;-84
2021/12/28 06:39:25;;;;;;;16.38;7.07;;;4.50;99.90;;;;;;5026458;28;20388;-83
2021/12/28 06:41:51;;;;;;;14.25;7.05;;;4.80;99.90;;;;;;5036438;28;20048;-83
2021/12/28 06:44:17;;;;;;;11.68;5.82;;;4.60;99.90;;;;;;5037109;28;20183;-83
2021/12/28 06:46:43;;;;;;;11.88;5.75;;;5.40;99.90;;;;;;5025464;28;20060;-83
2021/12/28 06:49:09;;;;;;;10.23;5.45;;;5.10;99.90;;;;;;5041106;28;20045;-83
2021/12/28 06:51:34;;;;;;;10.88;5.78;;;4.50;99.90;;;;;;5016647;28;20052;-83
2021/12/28 06:54:00;;;;;;;12.45;5.75;;;4.60;99.90;;;;;;5023128;28;20060;-83
2021/12/28 06:56:26;;;;;;;11.48;5.25;;;4.80;99.90;;;;;;5037988;28;20051;-84
2021/12/28 06:58:52;;;;;;;11.50;5.95;;;5.00;99.90;;;;;;5026931;28;20434;-84
2021/12/28 07:01:17;;;;;;;13.23;5.85;;;4.50;99.90;;;;;;5037687;28;20112;-82
2021/12/28 07:03:43;;;;;;;16.52;8.32;;;5.40;99.90;;;;;;5025084;28;20049;-82
2021/12/28 07:06:10;;;;;;;13.60;7.32;;;4.40;99.90;;;;;;5053390;28;20526;-83
2021/12/28 07:08:36;;;;;;;15.02;6.93;;;5.00;99.90;;;;;;5044017;28;20492;-82
2021/12/28 07:11:03;;;;;;;16.25;7.50;;;4.80;99.90;;;;;;5029869;28;20469;-81
2021/12/28 07:13:29;;;;;;;14.98;7.20;;;4.30;99.90;;;;;;5046646;28;20430;-81
2021/12/28 07:15:54;;;;;;;14.23;5.97;;;4.70;99.90;;;;;;5048272;28;20045;-81
2021/12/28 07:18:20;;;;;;;13.57;6.25;;;4.90;99.90;;;;;;5047527;28;20037;-81
2021/12/28 07:20:46;;;;;;;13.50;6.07;;;4.70;99.90;;;;;;5037027;28;20128;-80
2021/12/28 07:23:12;;;;;;;13.27;6.32;;;4.30;99.90;;;;;;5026726;28;20068;-80
2021/12/28 07:25:38;;;;;;;12.02;6.00;;;4.50;99.90;;;;;;5030219;28;20045;-80
2021/12/28 07:28:04;;;;;;;15.15;6.68;;;4.50;99.90;;;;;;5005950;28;20128;-81
2021/12/28 07:30:30;;;;;;;12.07;5.70;;;4.20;99.90;;;;;;5024429;28;20033;-80
2021/12/28 07:32:55;;;;;;;12.50;6.13;;;5.00;99.90;;;;;;5027465;28;20132;-80
2021/12/28 07:35:21;;;;;;;12.63;5.70;;;4.70;99.90;;;;;;5050155;28;20135;-81
2021/12/28 07:37:48;;;;;;;10.70;5.28;;;4.80;99.90;;;;;;5045779;28;20048;-82
2021/12/28 07:40:14;;;;;;;10.23;4.45;;;4.10;99.90;;;;;;5031078;28;20045;-82
2021/12/28 07:42:40;;;;;;;10.82;5.75;;;4.00;99.90;;;;;;5029974;28;20037;-81
2021/12/28 07:45:09;;;;;;;16.17;6.90;;;4.30;99.90;;;;;;5049930;28;20052;-82
2021/12/28 07:47:36;;;;;;;14.32;6.47;;;4.00;99.90;;;;;;5044710;28;20045;-82
2021/12/28 07:50:02;;;;;;;13.25;5.47;;;4.20;99.90;;;;;;5053950;28;20486;-85
2021/12/28 07:52:28;;;;;;;10.45;5.43;;;4.00;99.90;;;;;;5018583;28;20045;-82
2021/12/28 07:54:54;;;;;;;9.65;4.72;;;4.00;99.90;;;;;;5043567;28;20381;-82
2021/12/28 07:57:19;;;;;;;10.73;4.82;;;4.00;99.90;;;;;;5035502;28;20053;-83
2021/12/28 07:59:45;;;;;;;13.23;5.68;;;4.10;99.90;;;;;;5046585;28;20052;-83
2021/12/28 08:02:11;;;;;;;10.55;5.53;;;4.40;99.90;;;;;;5042348;28;20045;-82
2021/12/28 08:04:36;;;;;;;9.40;4.93;;;4.70;99.90;;;;;;5019914;28;20546;-83
2021/12/28 08:07:02;;;;;;;12.38;5.68;;;5.00;99.90;;;;;;5043801;28;20411;-82
2021/12/28 08:09:28;;;;;;;13.57;6.22;;;4.20;99.90;;;;;;5037298;28;20407;-82
2021/12/28 08:11:54;;;;;;;14.77;6.28;;;4.60;99.90;;;;;;5043517;28;20045;-83
2021/12/28 08:14:19;;;;;;;11.05;5.72;;;4.30;99.90;;;;;;5032900;28;20045;-82
2021/12/28 08:16:45;;;;;;;11.75;5.15;;;4.40;99.90;;;;;;5046003;28;20049;-82
2021/12/28 08:19:11;;;;;;;11.52;5.30;;;4.40;99.90;;;;;;5042572;28;20050;-83
2021/12/28 08:21:37;;;;;;;10.75;5.18;;;5.20;99.90;;;;;;5044926;28;20099;-83
2021/12/28 08:24:03;;;;;;;9.18;4.28;;;4.40;99.90;;;;;;5028403;28;20041;-83
2021/12/28 08:26:29;;;;;;;9.15;3.92;;;4.50;99.90;;;;;;5047360;28;20101;-83
2021/12/28 08:28:55;;;;;;;11.90;4.93;;;4.40;99.90;;;;;;5043765;28;20049;-83
2021/12/28 08:31:21;;;;;;;9.50;5.10;;;4.80;99.90;;;;;;5047184;28;20499;-83
2021/12/28 08:33:46;;;;;;;9.73;5.45;;;4.80;99.90;;;;;;5026305;28;20112;-83
2021/12/28 08:36:12;;;;;;;9.55;4.95;;;5.30;99.90;;;;;;5046635;28;20532;-83
2021/12/28 08:38:39;;;;;;;11.73;5.07;;;5.30;99.90;;;;;;5045397;28;20048;-82
2021/12/28 08:41:05;;;;;;;8.02;4.43;;;5.20;99.90;;;;;;5027439;28;20044;-83
2021/12/28 08:43:31;;;;;;;7.95;4.07;;;4.90;99.90;;;;;;5044178;28;20052;-83
2021/12/28 08:45:57;;;;;;;8.10;3.88;;;4.70;99.90;;;;;;5049659;28;20037;-83
2021/12/28 08:48:23;;;;;;;6.95;3.58;;;4.70;99.90;;;;;;5044690;28;20391;-83
2021/12/28 08:50:49;;;;;;;7.53;3.85;;;4.80;99.90;;;;;;5052732;28;20040;-83
2021/12/28 08:53:15;;;;;;;7.63;3.42;;;4.70;99.90;;;;;;5045339;28;20044;-83
2021/12/28 08:55:41;;;;;;;6.40;2.78;;;5.20;99.90;;;;;;5045478;28;20037;-82
2021/12/28 08:58:07;;;;;;;9.10;3.78;;;4.80;99.90;;;;;;5027496;28;20048;-83
2021/12/28 09:00:34;;;;;;;6.72;3.00;;;4.70;99.90;;;;;;5043480;28;20515;-81
2021/12/28 09:03:01;;;;;;;7.95;3.00;;;5.70;99.90;;;;;;5043712;28;20522;-83
2021/12/28 09:05:28;;;;;;;4.38;2.67;;;5.50;99.90;;;;;;5035173;28;20136;-81
2021/12/28 09:07:55;;;;;;;4.38;2.30;;;4.90;99.90;;;;;;5035796;28;20068;-81
2021/12/28 09:10:21;;;;;;;3.58;1.27;;;6.00;99.90;;;;;;5047448;28;20037;-83
2021/12/28 09:12:47;;;;;;;6.38;2.50;;;5.60;99.90;;;;;;5045501;28;20044;-82
2021/12/28 09:15:13;;;;;;;3.58;1.88;;;4.80;99.90;;;;;;5044667;28;20049;-82
2021/12/28 09:17:40;;;;;;;5.68;1.90;;;5.40;99.90;;;;;;5048123;28;20088;-82
2021/12/28 09:20:13;;;;;;;4.25;1.92;;;4.80;99.90;;;;;;5041044;28;20034;-82
2021/12/28 09:22:39;;;;;;;4.90;2.47;;;4.20;99.90;;;;;;5042981;28;20129;-84
2021/12/28 09:25:05;;;;;;;4.13;2.17;;;4.70;99.90;;;;;;5039493;28;20468;-83
2021/12/28 09:27:31;;;;;;;6.35;2.50;;;5.00;99.90;;;;;;5041692;28;20407;-83
2021/12/28 09:29:57;;;;;;;7.45;3.13;;;5.70;99.90;;;;;;5044922;28;20037;-81
2021/12/28 09:32:22;;;;;;;6.93;2.83;;;5.10;99.90;;;;;;5032907;28;20049;-82
2021/12/28 09:34:50;;;;;;;11.07;2.50;;;5.90;99.90;;;;;;5034752;28;20041;-84
2021/12/28 09:37:16;;;;;;;11.20;3.05;;;5.20;99.90;;;;;;5041370;28;20077;-82
2021/12/28 09:39:42;;;;;;;3.92;1.90;;;5.20;99.90;;;;;;5047643;28;20123;-82
2021/12/28 09:42:09;;;;;;;6.20;2.50;;;4.40;99.90;;;;;;5023517;28;20071;-84
2021/12/28 09:44:35;;;;;;;8.50;2.30;;;6.10;99.90;;;;;;5041074;28;20441;-82
2021/12/28 09:47:03;;;;;;;5.82;2.25;;;5.70;99.90;;;;;;5052036;28;20430;-82
2021/12/28 09:49:29;;;;;;;5.03;3.03;;;5.40;99.90;;;;;;5044778;28;20046;-81
2021/12/28 09:51:57;;;;;;;5.72;2.60;;;5.40;99.90;;;;;;5038205;28;20076;-82
2021/12/28 09:54:28;;;;;;;7.93;2.85;;;5.70;99.90;;;;;;5043749;28;20083;-82
2021/12/28 09:56:56;;;;;;;5.32;2.08;;;5.40;99.90;;;;;;5043750;28;20041;-81
2021/12/28 09:59:23;;;;;;;5.22;2.10;;;6.00;99.90;;;;;;5044496;28;20045;-81
2021/12/28 10:01:50;;;;;;;6.72;2.40;;;5.50;99.90;;;;;;5038248;28;20539;-81
2021/12/28 10:04:16;;;;;;;4.25;1.92;;;5.50;99.90;;;;;;5040999;28;20032;-81
2021/12/28 10:06:43;;;;;;;5.47;2.00;;;5.50;99.90;;;;;;5039841;28;20056;-82
2021/12/28 10:09:17;;;;;;;4.88;1.83;;;5.60;99.90;;;;;;5044537;28;20398;-82
2021/12/28 10:11:53;;;;;;;8.60;2.30;;;6.60;99.90;;;;;;5046731;28;20103;-81
2021/12/28 10:14:24;;;;;;;4.53;2.00;;;5.60;99.90;;;;;;5022603;28;20491;-82
2021/12/28 10:16:58;;;;;;;4.70;1.83;;;5.60;99.90;;;;;;5025242;28;20121;-80
2021/12/28 10:19:34;;;;;;;4.13;2.37;;;5.60;99.90;;;;;;5042867;28;20095;-82
2021/12/28 10:22:47;;;;;;;6.13;1.95;;;5.60;99.90;;;;;;5037748;28;20827;-82
2021/12/28 10:25:20;;;;;;;5.55;2.88;;;5.70;99.90;;;;;;4978257;28;20487;-83
2021/12/28 10:27:48;;;;;;;4.85;1.48;;;5.70;99.90;;;;;;4978700;28;20587;-83
2021/12/28 10:30:16;;;;;;;2.60;1.40;;;6.50;99.90;;;;;;4963265;28;20066;-83
2021/12/28 10:32:44;;;;;;;3.92;1.40;;;5.70;99.90;;;;;;4988460;28;20074;-81
2021/12/28 10:35:16;;;;;;;5.28;1.40;;;5.80;99.90;;;;;;4985880;28;20486;-82
2021/12/28 10:37:46;;;;;;;4.47;1.10;;;5.80;99.90;;;;;;4983545;28;20051;-82
2021/12/28 10:40:21;;;;;;;4.97;1.38;;;6.00;99.90;;;;;;4975834;28;20182;-84
2021/12/28 10:42:49;;;;;;;3.83;1.48;;;5.70;99.90;;;;;;4990177;28;20453;-83
2021/12/28 10:45:19;;;;;;;5.30;1.77;;;6.40;99.90;;;;;;4988664;28;20150;-84
2021/12/28 10:47:47;;;;;;;2.72;1.25;;;6.50;99.90;;;;;;4985098;28;20052;-83
2021/12/28 10:50:29;;;;;;;6.03;1.50;;;6.00;99.90;;;;;;4980938;28;20409;-83
2021/12/28 10:53:24;;;;;;;5.32;1.58;;;6.90;99.90;;;;;;4985325;28;20400;-81
2021/12/28 10:56:00;;;;;;;6.40;2.00;;;6.10;99.90;;;;;;5005233;28;20543;-81
2021/12/28 10:58:30;;;;;;;5.10;1.52;;;6.30;99.90;;;;;;5059400;28;20049;-82
2021/12/28 11:01:03;;;;;;;3.97;1.45;;;6.50;99.90;;;;;;5040917;28;20048;-81
2021/12/28 11:03:34;;;;;;;4.72;1.50;;;6.50;99.90;;;;;;5047494;28;20083;-80
2021/12/28 11:06:09;;;;;;;2.75;1.17;;;6.10;99.90;;;;;;5044009;28;20065;-80
2021/12/28 11:08:35;;;;;;;4.82;1.20;;;6.10;99.90;;;;;;5043824;28;20057;-81
2021/12/28 11:11:05;;;;;;;4.47;1.73;;;6.10;99.90;;;;;;5045773;28;20056;-80
2021/12/28 11:13:32;;;;;;;3.50;1.35;;;6.10;99.90;;;;;;5043180;28;20045;-83
2021/12/28 11:16:00;;;;;;;5.97;1.95;;;6.10;99.90;;;;;;5045946;28;20124;-82
2021/12/28 11:18:30;;;;;;;4.88;1.55;;;6.30;99.90;;;;;;5018927;28;20055;-82
2021/12/28 11:20:58;;;;;;;7.50;1.77;;;6.50;99.90;;;;;;5046408;28;20069;-82
2021/12/28 11:23:28;;;;;;;5.07;1.58;;;6.50;99.90;;;;;;5035206;28;20051;-81
2021/12/28 11:26:38;;;;;;;3.95;1.40;;;6.80;99.90;;;;;;5029375;28;20134;-82
2021/12/28 11:29:04;;;;;;;6.90;1.70;;;6.20;99.90;;;;;;4992124;28;20081;-82
2021/12/28 11:31:48;;;;;;;6.68;2.20;;;6.30;99.90;;;;;;4993005;28;20042;-82
2021/12/28 11:34:21;;;;;;;4.47;1.55;;;6.30;99.90;;;;;;4986017;28;20062;-82
2021/12/28 11:36:56;;;;;;;3.28;1.33;;;6.90;99.90;;;;;;4992375;28;20487;-81
2021/12/28 11:39:25;;;;;;;6.57;1.95;;;6.30;99.90;;;;;;4992917;28;20189;-80
2021/12/28 11:41:51;;;;;;;4.15;2.28;;;6.30;99.90;;;;;;4992570;28;20050;-81
2021/12/28 11:44:19;;;;;;;3.58;1.65;;;6.10;99.90;;;;;;4992713;28;20432;-82
2021/12/28 11:46:46;;;;;;;5.25;1.70;;;7.10;99.90;;;;;;4976074;28;20062;-82
2021/12/28 11:49:14;;;;;;;5.25;1.92;;;6.40;99.90;;;;;;4992796;28;20396;-82
2021/12/28 11:51:41;;;;;;;7.82;1.83;;;6.50;99.90;;;;;;4976011;28;20057;-81
2021/12/28 11:54:10;;;;;;;5.45;2.10;;;6.70;99.90;;;;;;4976280;28;20069;-82
2021/12/28 11:56:39;;;;;;;3.10;1.30;;;6.50;99.90;;;;;;4975833;28;20065;-82
2021/12/28 11:59:09;;;;;;;2.97;1.88;;;7.20;99.90;;;;;;4975923;28;20066;-82
2021/12/28 12:01:41;;;;;;;4.78;2.10;;;6.50;99.90;;;;;;4992622;28;20041;-81
2021/12/28 12:04:33;;;;;;;6.85;1.50;;;6.60;99.90;;;;;;4992139;28;20436;-82
2021/12/28 12:07:12;;;;;;;3.83;1.48;;;6.50;99.90;;;;;;4976170;28;20061;-82
2021/12/28 12:09:50;;;;;;;3.13;1.77;;;6.50;99.90;;;;;;5000228;28;20062;-82
2021/12/28 12:12:25;;;;;;;4.13;1.90;;;6.50;99.90;;;;;;4982602;28;20101;-83
2021/12/28 12:14:54;;;;;;;5.78;2.05;;;6.60;99.90;;;;;;4981401;28;20118;-81
2021/12/28 12:17:34;;;;;;;6.60;2.50;;;7.20;99.90;;;;;;4960441;28;20105;-83
2021/12/28 12:20:07;;;;;;;8.10;2.30;;;6.60;99.90;;;;;;4971028;28;20076;-82
2021/12/28 12:22:39;;;;;;;4.05;2.45;;;6.60;99.90;;;;;;4965156;28;20050;-82
2021/12/28 12:25:32;;;;;;;5.95;1.90;;;6.60;99.90;;;;;;4982869;28;20156;-82
2021/12/28 12:28:00;;;;;;;3.75;1.80;;;6.70;99.90;;;;;;4965411;28;20641;-82
2021/12/28 12:30:29;;;;;;;4.53;1.65;;;6.70;99.90;;;;;;4957827;28;20058;-83
2021/12/28 12:33:07;;;;;;;3.70;1.85;;;6.70;99.90;;;;;;4965196;28;20250;-82
2021/12/28 12:35:47;;;;;;;4.57;1.92;;;6.80;99.90;;;;;;4949345;28;20046;-82
2021/12/28 12:38:13;;;;;;;4.25;1.90;;;6.70;99.90;;;;;;4959182;28;20493;-84
2021/12/28 12:41:11;;;;;;;3.42;2.13;;;6.90;99.90;;;;;;4945376;28;20081;-83
2021/12/28 12:43:37;;;;;;;3.65;1.92;;;6.70;99.90;;;;;;4962017;28;20561;-82
2021/12/28 12:46:05;;;;;;;5.50;2.08;;;7.30;99.90;;;;;;4974861;28;20090;-83
2021/12/28 12:48:33;;;;;;;5.50;2.13;;;7.10;99.90;;;;;;4972979;28;20124;-81
2021/12/28 12:51:20;;;;;;;3.13;1.55;;;6.70;99.90;;;;;;4988119;28;20056;-81
2021/12/28 12:53:46;;;;;;;4.30;1.98;;;6.70;99.90;;;;;;4978838;28;20504;-81
2021/12/28 12:56:14;;;;;;;4.82;2.05;;;7.50;99.90;;;;;;4974245;28;20189;-82
2021/12/28 12:58:41;;;;;;;3.85;1.63;;;6.80;99.90;;;;;;4976997;28;20058;-81
2021/12/28 13:01:26;;;;;;;4.03;1.52;;;7.30;99.90;;;;;;4961448;28;20504;-83